TimeCST,TemperatureF,Dew PointF,Humidity,Sea Level PressureIn,VisibilityMPH,Wind Direction,Wind SpeedMPH,Gust SpeedMPH,PrecipitationIn,Events,Conditions,WindDirDegrees,DateUTC
12:53 AM,44.1,25.0,47,29.88,10.0,NNW,31.1,40.3,N/A,,Clear,340,2014-01-27 06:53:00
1:53 AM,39.9,23.0,51,29.96,10.0,NNW,24.2,32.2,N/A,,Clear,340,2014-01-27 07:53:00
2:53 AM,35.1,19.0,52,30.01,10.0,NNW,23.0,31.1,N/A,,Clear,340,2014-01-27 08:53:00
3:53 AM,32.0,16.0,52,30.07,10.0,North,24.2,32.2,N/A,,Clear,360,2014-01-27 09:53:00
4:53 AM,28.0,-2.0,27,30.14,10.0,NNW,20.7,34.5,N/A,,Clear,340,2014-01-27 10:53:00
5:53 AM,26.1,-0.9,31,30.20,10.0,NNW,20.7,-,N/A,,Overcast,340,2014-01-27 11:53:00
6:53 AM,24.1,-0.9,34,30.25,10.0,NNE,17.3,-,N/A,,Overcast,20,2014-01-27 12:53:00
7:53 AM,21.9,-5.1,30,30.30,10.0,North,20.7,26.5,N/A,,Overcast,10,2014-01-27 13:53:00
8:53 AM,21.9,-2.9,34,30.35,10.0,North,17.3,-,N/A,,Overcast,360,2014-01-27 14:53:00
9:53 AM,21.0,-9.0,26,30.38,10.0,North,19.6,29.9,N/A,,Overcast,350,2014-01-27 15:53:00
10:53 AM,21.0,-8.0,28,30.39,10.0,North,15.0,-,N/A,,Overcast,350,2014-01-27 16:53:00
11:53 AM,21.0,-11.0,24,30.40,10.0,NNW,15.0,-,N/A,,Mostly Cloudy,340,2014-01-27 17:53:00
12:53 PM,21.9,-9.0,25,30.37,10.0,North,11.5,-,N/A,,Partly Cloudy,360,2014-01-27 18:53:00
1:53 PM,21.9,-9.0,25,30.36,10.0,North,15.0,-,N/A,,Clear,10,2014-01-27 19:53:00
2:53 PM,21.9,-9.9,24,30.38,10.0,NNW,10.4,-,N/A,,Clear,330,2014-01-27 20:53:00
3:53 PM,23.0,-8.0,25,30.38,10.0,North,13.8,-,N/A,,Clear,10,2014-01-27 21:53:00
4:53 PM,21.9,-7.1,28,30.40,10.0,North,11.5,-,N/A,,Partly Cloudy,360,2014-01-27 22:53:00
5:53 PM,21.9,-6.0,29,30.43,10.0,NNE,6.9,-,N/A,,Partly Cloudy,20,2014-01-27 23:53:00
6:53 PM,21.0,-7.1,29,30.45,10.0,North,15.0,-,N/A,,Mostly Cloudy,350,2014-01-28 00:53:00
7:53 PM,19.9,-8.0,29,30.46,10.0,NNE,12.7,-,N/A,,Mostly Cloudy,20,2014-01-28 01:53:00
8:53 PM,19.9,-6.0,32,30.46,10.0,NNE,12.7,-,N/A,,Overcast,30,2014-01-28 02:53:00
9:53 PM,19.0,-7.1,31,30.47,10.0,NNE,12.7,-,N/A,,Overcast,30,2014-01-28 03:53:00
10:53 PM,19.0,-6.0,33,30.49,10.0,North,11.5,-,N/A,,Mostly Cloudy,360,2014-01-28 04:53:00
11:53 PM,18.0,-5.1,36,30.49,10.0,NNE,12.7,-,N/A,,Overcast,20,2014-01-28 05:53:00